createdAt,value
2023-03-29T00:00:49.911Z,99955.63
2023-03-29T00:03:54.098Z,99957.66
2023-03-29T00:06:56.431Z,99961.63
2023-03-29T00:09:58.726Z,99959.31
2023-03-29T00:13:01.435Z,99961.84
2023-03-29T00:16:03.752Z,99965.91
2023-03-29T00:19:06.190Z,99958.16
2023-03-29T00:22:08.388Z,99955.19
2023-03-29T00:25:11.859Z,99956.37
2023-03-29T00:28:14.794Z,99954.94
2023-03-29T00:31:18.234Z,99950.03
2023-03-29T00:34:21.337Z,99944.47
2023-03-29T00:37:26.856Z,99950.19
2023-03-29T00:40:29.024Z,99942.13
2023-03-29T00:43:31.233Z,99953.97
2023-03-29T00:46:35.005Z,99945.59
2023-03-29T00:49:37.644Z,99952.56
2023-03-29T00:52:41.648Z,99952.78
2023-03-29T00:55:43.765Z,99943.78
2023-03-29T00:59:19.163Z,99958.13
2023-03-29T01:02:23.051Z,99948.59
2023-03-29T01:05:37.722Z,99942.91
2023-03-29T01:08:43.762Z,99934.72
2023-03-29T01:11:51.256Z,99940.34
2023-03-29T01:15:06.819Z,99940.34
2023-03-29T01:18:09.643Z,99940.06
2023-03-29T01:21:23.610Z,99950.22
2023-03-29T01:24:28.822Z,99943.53
2023-03-29T01:27:37.956Z,99935.22
2023-03-29T01:30:48.771Z,99938.78
2023-03-29T01:33:56.383Z,99933.50
2023-03-29T01:37:13.511Z,99933.69
2023-03-29T01:40:15.955Z,99932.37
2023-03-29T01:43:27.233Z,99924.19
2023-03-29T01:46:38.654Z,99923.13
2023-03-29T01:50:00.951Z,99927.38
2023-03-29T01:53:08.302Z,99926.44
2023-03-29T01:56:17.552Z,99930.72
2023-03-29T01:59:28.918Z,99931.06
2023-03-29T02:02:32.018Z,99930.16
2023-03-29T02:05:35.832Z,99937.56
2023-03-29T02:08:41.892Z,99936.59
2023-03-29T02:11:44.936Z,99940.50
2023-03-29T02:14:47.188Z,99936.97
2023-03-29T02:17:50.944Z,99944.22
2023-03-29T02:20:54.697Z,99938.59
2023-03-29T02:23:59.665Z,99932.53
2023-03-29T02:27:01.900Z,99939.69
2023-03-29T02:30:06.271Z,99940.47
2023-03-29T02:33:14.041Z,99938.94
2023-03-29T02:36:18.727Z,99945.38
2023-03-29T02:39:21.388Z,99945.25
2023-03-29T02:42:24.712Z,99941.31
2023-03-29T02:45:28.003Z,99963.19
2023-03-29T02:48:31.457Z,99953.31
2023-03-29T02:51:34.405Z,99956.31
2023-03-29T02:54:43.021Z,99956.44
2023-03-29T02:57:45.565Z,99956.03
2023-03-29T03:00:48.841Z,99947.19
2023-03-29T03:03:52.052Z,99960.91
2023-03-29T03:06:54.475Z,99962.34
2023-03-29T03:09:57.786Z,99957.84
2023-03-29T03:12:59.966Z,99964.97
2023-03-29T03:16:03.224Z,99960.31
2023-03-29T03:19:05.634Z,99962.69
2023-03-29T03:22:10.113Z,99954.47
2023-03-29T03:25:13.022Z,99962.34
2023-03-29T03:28:15.232Z,99960.41
2023-03-29T03:31:17.629Z,99961.78
2023-03-29T03:34:19.855Z,99970.31
2023-03-29T03:37:22.628Z,99969.87
2023-03-29T03:40:26.583Z,99964.84
2023-03-29T03:43:30.331Z,99959.28
2023-03-29T03:46:32.508Z,99959.94
2023-03-29T03:49:34.762Z,99963.87
2023-03-29T03:52:37.050Z,99957.22
2023-03-29T03:55:39.705Z,99965.69
2023-03-29T03:58:41.970Z,99971.50
2023-03-29T04:01:44.221Z,99971.28
2023-03-29T04:04:46.631Z,99972.91
2023-03-29T04:07:48.880Z,99966.78
2023-03-29T04:10:55.230Z,99963.59
2023-03-29T04:13:57.753Z,99966.41
2023-03-29T04:16:59.901Z,99959.00
2023-03-29T04:20:07.029Z,99963.09
2023-03-29T04:23:09.251Z,99964.44
2023-03-29T04:26:12.180Z,99970.84
2023-03-29T04:29:14.352Z,99971.88
2023-03-29T04:32:16.540Z,99974.75
2023-03-29T04:35:18.820Z,99971.84
2023-03-29T04:38:23.532Z,99977.69
2023-03-29T04:41:27.416Z,99979.06
2023-03-29T04:44:29.664Z,99979.94
2023-03-29T04:47:32.757Z,99978.84
2023-03-29T04:50:36.583Z,99972.13
2023-03-29T04:53:38.795Z,99969.94
2023-03-29T04:56:41.135Z,99973.28
2023-03-29T04:59:43.378Z,99976.28
2023-03-29T05:02:45.815Z,99966.28
2023-03-29T05:05:48.172Z,99964.22
2023-03-29T05:08:51.291Z,99972.47
2023-03-29T05:11:53.461Z,99968.53
2023-03-29T05:14:55.727Z,99970.09
2023-03-29T05:17:59.019Z,99976.72
2023-03-29T05:21:01.473Z,99969.13
2023-03-29T05:24:04.709Z,99975.28
2023-03-29T05:27:06.898Z,99982.44
2023-03-29T05:30:09.693Z,99983.50
2023-03-29T05:33:12.113Z,99981.62
2023-03-29T05:36:15.878Z,99981.94
2023-03-29T05:39:18.376Z,99983.19
2023-03-29T05:42:22.603Z,99982.94
2023-03-29T05:45:25.069Z,99978.72
2023-03-29T05:48:27.429Z,99978.37
2023-03-29T05:51:29.646Z,99985.19
2023-03-29T05:54:31.814Z,99990.56
2023-03-29T05:57:40.598Z,99996.25
2023-03-29T06:00:44.055Z,99990.41
2023-03-29T06:03:47.389Z,99993.13
2023-03-29T06:06:49.835Z,99997.22
2023-03-29T06:09:52.040Z,99986.94
2023-03-29T06:12:54.547Z,99989.16
2023-03-29T06:15:56.769Z,99998.31
2023-03-29T06:18:59.277Z,99997.34
2023-03-29T06:22:01.463Z,99998.69
2023-03-29T06:25:05.078Z,100000.59
2023-03-29T06:28:07.715Z,100006.16
2023-03-29T06:31:10.314Z,100009.25
2023-03-29T06:34:13.798Z,100009.19
2023-03-29T06:37:16.067Z,100019.97
2023-03-29T06:40:24.751Z,100017.06
2023-03-29T06:43:27.282Z,100026.97
2023-03-29T06:46:29.615Z,100020.31
2023-03-29T06:49:31.797Z,100020.84
2023-03-29T06:52:34.075Z,100013.56
2023-03-29T06:55:36.395Z,100025.06
2023-03-29T06:58:39.177Z,100025.59
2023-03-29T07:01:42.805Z,100030.06
2023-03-29T07:04:46.139Z,100036.31
2023-03-29T07:08:00.197Z,100035.84
2023-03-29T07:11:03.687Z,100036.53
2023-03-29T07:14:06.226Z,100044.59
2023-03-29T07:17:08.599Z,100040.59
2023-03-29T07:20:14.178Z,100052.22
2023-03-29T07:23:17.095Z,100048.56
2023-03-29T07:26:28.897Z,100046.97
2023-03-29T07:29:32.487Z,100051.41
2023-03-29T07:32:36.333Z,100053.31
2023-03-29T07:35:39.799Z,100053.22
2023-03-29T07:38:42.109Z,100062.69
2023-03-29T07:41:44.324Z,100056.47
2023-03-29T07:44:48.456Z,100054.69
2023-03-29T07:47:54.977Z,100065.66
2023-03-29T07:50:57.530Z,100068.28
2023-03-29T07:53:59.956Z,100064.41
2023-03-29T07:57:02.263Z,100075.03
2023-03-29T08:00:15.054Z,100063.72
2023-03-29T08:03:17.811Z,100062.59
2023-03-29T08:06:20.101Z,100063.22
2023-03-29T08:09:22.432Z,100058.09
2023-03-29T08:12:25.132Z,100057.87
2023-03-29T08:15:28.058Z,100063.97
2023-03-29T08:18:32.841Z,100050.81
2023-03-29T08:21:37.170Z,100050.69
2023-03-29T08:24:39.470Z,100048.94
2023-03-29T08:27:42.613Z,100047.56
2023-03-29T08:30:44.968Z,100048.47
2023-03-29T08:33:47.261Z,100048.88
2023-03-29T08:40:49.608Z,100042.59
2023-03-29T08:44:20.557Z,100048.66
2023-03-29T08:47:39.986Z,100052.19
2023-03-29T08:50:52.782Z,100042.00
2023-03-29T08:54:11.481Z,100039.06
2023-03-29T08:57:21.196Z,100044.81
2023-03-29T09:00:57.996Z,100034.13
2023-03-29T09:04:03.300Z,100037.00
2023-03-29T09:07:09.157Z,100040.59
2023-03-29T09:10:18.358Z,100041.03
2023-03-29T09:13:32.799Z,100032.03
2023-03-29T09:17:01.171Z,100021.38
2023-03-29T09:20:14.481Z,100016.66
2023-03-29T09:23:25.913Z,100019.59
2023-03-29T09:26:37.482Z,100014.50
2023-03-29T09:29:39.507Z,100019.00
2023-03-29T09:33:01.953Z,100018.25
2023-03-29T09:36:10.001Z,100020.44
2023-03-29T09:39:14.992Z,100015.38
2023-03-29T09:42:17.968Z,100012.22
2023-03-29T09:45:20.238Z,100012.09
2023-03-29T09:48:23.268Z,100005.12
2023-03-29T09:51:28.037Z,99997.25
2023-03-29T09:54:30.374Z,99993.06
2023-03-29T09:57:32.559Z,99989.06
2023-03-29T10:00:34.777Z,99978.03
2023-03-29T10:03:37.127Z,99983.47
2023-03-29T10:06:49.311Z,99971.91
2023-03-29T10:09:52.164Z,99972.97
2023-03-29T10:12:59.167Z,99968.19
2023-03-29T10:16:04.964Z,99968.13
2023-03-29T10:19:24.046Z,99956.88
2023-03-29T10:22:28.577Z,99952.56
2023-03-29T10:25:32.947Z,99950.91
2023-03-29T10:28:36.650Z,99949.25
2023-03-29T10:33:00.060Z,99949.19
2023-03-29T10:36:05.379Z,99941.38
2023-03-29T10:39:09.986Z,99943.41
2023-03-29T10:42:17.549Z,99951.97
2023-03-29T10:45:31.742Z,99947.87
2023-03-29T10:48:35.557Z,99943.41
2023-03-29T10:51:37.736Z,99940.44
2023-03-29T10:54:39.977Z,99940.25
2023-03-29T10:57:57.554Z,99939.00
2023-03-29T11:01:00.011Z,99938.72
2023-03-29T11:04:40.786Z,99926.41
2023-03-29T11:07:48.722Z,99931.31
2023-03-29T11:11:14.193Z,99913.31
2023-03-29T11:14:34.652Z,99931.72
2023-03-29T11:17:58.591Z,99921.50
2023-03-29T11:21:29.144Z,99915.59
2023-03-29T11:24:46.889Z,99903.41
2023-03-29T11:28:26.378Z,99912.50
2023-03-29T11:31:31.337Z,99898.56
2023-03-29T11:35:06.489Z,99905.66
2023-03-29T11:38:35.331Z,99903.66
2023-03-29T11:41:43.970Z,99906.19
2023-03-29T11:44:48.430Z,99898.47
2023-03-29T11:47:52.972Z,99894.84
2023-03-29T11:51:00.876Z,99885.66
2023-03-29T11:54:19.501Z,99883.09
2023-03-29T11:57:46.682Z,99876.16
2023-03-29T12:00:52.837Z,99870.44
2023-03-29T12:04:02.682Z,99867.12
2023-03-29T12:07:12.095Z,99863.72
2023-03-29T12:10:23.531Z,99860.78
2023-03-29T12:13:33.058Z,99856.91
2023-03-29T12:16:44.108Z,99856.03
2023-03-29T12:20:10.886Z,99863.06
2023-03-29T12:23:14.965Z,99841.97
2023-03-29T12:26:42.488Z,99857.97
2023-03-29T12:29:53.738Z,99850.19
2023-03-29T12:33:02.282Z,99846.84
2023-03-29T12:36:32.606Z,99841.69
2023-03-29T12:39:36.776Z,99843.06
2023-03-29T12:42:52.734Z,99830.25
2023-03-29T12:45:58.377Z,99824.06
2023-03-29T12:49:09.588Z,99830.19
2023-03-29T12:52:27.174Z,99835.78
2023-03-29T12:55:42.347Z,99818.09
2023-03-29T12:59:05.653Z,99814.94
2023-03-29T13:02:14.161Z,99825.09
2023-03-29T13:05:34.704Z,99814.72
2023-03-29T13:08:46.009Z,99820.59
2023-03-29T13:12:04.131Z,99821.13
2023-03-29T13:15:22.054Z,99826.00
2023-03-29T13:18:39.423Z,99822.03
2023-03-29T13:21:49.736Z,99825.66
2023-03-29T13:25:17.925Z,99821.84
2023-03-29T13:28:58.499Z,99809.87
2023-03-29T13:32:17.723Z,99802.22
2023-03-29T13:35:31.984Z,99806.16
2023-03-29T13:38:53.731Z,99797.34
2023-03-29T13:42:21.648Z,99787.81
2023-03-29T13:45:29.348Z,99784.25
2023-03-29T13:48:33.716Z,99785.41
2023-03-29T13:51:41.241Z,99785.66
2023-03-29T13:54:53.351Z,99788.06
2023-03-29T13:58:06.477Z,99777.69
2023-03-29T14:01:17.755Z,99782.44
2023-03-29T14:04:43.944Z,99773.31
2023-03-29T14:07:51.630Z,99778.47
2023-03-29T14:10:54.553Z,99779.87
2023-03-29T14:13:59.079Z,99785.03
2023-03-29T14:17:01.898Z,99777.53
2023-03-29T14:20:09.098Z,99777.16
2023-03-29T14:23:14.342Z,99771.84
2023-03-29T14:26:20.569Z,99767.66
2023-03-29T14:29:25.397Z,99763.44
2023-03-29T14:32:30.022Z,99764.84
2023-03-29T14:35:33.230Z,99752.72
2023-03-29T14:38:36.153Z,99752.09
2023-03-29T14:41:39.154Z,99747.38
2023-03-29T14:44:42.398Z,99748.63
2023-03-29T14:47:46.043Z,99755.88
2023-03-29T14:50:48.483Z,99754.28
2023-03-29T14:53:50.676Z,99741.41
2023-03-29T14:56:53.112Z,99749.00
2023-03-29T14:59:59.744Z,99742.97
2023-03-29T15:03:02.849Z,99748.53
2023-03-29T15:06:05.804Z,99737.94
2023-03-29T15:09:16.340Z,99744.41
2023-03-29T15:12:18.539Z,99743.59
2023-03-29T15:15:21.344Z,99741.91
2023-03-29T15:18:35.116Z,99739.06
2023-03-29T15:21:38.554Z,99740.34
2023-03-29T15:24:48.089Z,99743.28
2023-03-29T15:27:57.968Z,99731.41
2023-03-29T15:31:11.647Z,99730.31
2023-03-29T15:34:25.380Z,99732.78
2023-03-29T15:37:28.106Z,99732.19
2023-03-29T15:40:30.331Z,99733.94
2023-03-29T15:43:32.580Z,99726.53
2023-03-29T15:46:34.826Z,99729.53
2023-03-29T15:49:37.042Z,99718.22
2023-03-29T15:52:39.639Z,99713.66
2023-03-29T15:55:44.814Z,99716.31
2023-03-29T15:58:47.395Z,99712.09
2023-03-29T16:01:49.734Z,99717.31
2023-03-29T16:04:51.946Z,99708.38
2023-03-29T16:07:54.125Z,99712.37
2023-03-29T16:10:56.318Z,99708.84
2023-03-29T16:13:58.786Z,99707.50
2023-03-29T16:17:02.804Z,99711.75
2023-03-29T16:20:05.884Z,99702.03
2023-03-29T16:23:11.987Z,99695.63
2023-03-29T16:26:19.281Z,99700.25
2023-03-29T16:29:21.531Z,99696.09
2023-03-29T16:32:23.765Z,99699.09
2023-03-29T16:35:31.342Z,99699.34
2023-03-29T16:38:34.183Z,99695.09
2023-03-29T16:41:37.058Z,99688.50
2023-03-29T16:44:39.348Z,99688.28
2023-03-29T16:47:44.779Z,99687.81
2023-03-29T16:50:50.713Z,99687.00
2023-03-29T16:53:53.098Z,99698.94
2023-03-29T16:56:55.482Z,99705.63
2023-03-29T16:59:57.764Z,99705.91
2023-03-29T17:03:03.189Z,99705.16
2023-03-29T17:06:06.788Z,99707.28
2023-03-29T17:09:09.750Z,99704.97
2023-03-29T17:12:12.476Z,99705.34
2023-03-29T17:15:15.112Z,99699.16
2023-03-29T17:18:17.299Z,99694.38
2023-03-29T17:21:19.707Z,99702.66
2023-03-29T17:24:21.906Z,99696.87
2023-03-29T17:27:24.089Z,99692.44
2023-03-29T17:30:26.281Z,99696.41
2023-03-29T17:33:28.692Z,99707.31
2023-03-29T17:36:33.841Z,99700.56
2023-03-29T17:39:37.846Z,99706.78
2023-03-29T17:42:41.407Z,99710.78
2023-03-29T17:45:43.814Z,99714.25
2023-03-29T17:48:50.980Z,99718.69
2023-03-29T17:51:53.752Z,99720.84
2023-03-29T17:54:55.967Z,99715.56
2023-03-29T17:57:58.425Z,99722.84
2023-03-29T18:01:07.831Z,99712.75
2023-03-29T18:04:10.516Z,99720.28
2023-03-29T18:07:13.148Z,99718.00
2023-03-29T18:10:17.212Z,99714.31
2023-03-29T18:13:25.318Z,99727.91
2023-03-29T18:16:28.132Z,99724.09
2023-03-29T18:19:30.862Z,99724.69
2023-03-29T18:22:34.263Z,99732.28
2023-03-29T18:25:36.838Z,99725.06
2023-03-29T18:28:40.308Z,99736.53
2023-03-29T18:31:43.637Z,99738.50
2023-03-29T18:34:46.127Z,99739.34
2023-03-29T18:37:48.695Z,99752.41
2023-03-29T18:40:51.540Z,99743.34
2023-03-29T18:43:57.734Z,99747.47
2023-03-29T18:46:59.909Z,99739.19
2023-03-29T18:50:02.808Z,99740.03
2023-03-29T18:53:05.313Z,99743.50
2023-03-29T18:56:08.095Z,99733.78
2023-03-29T18:59:10.327Z,99737.06
2023-03-29T19:02:12.827Z,99734.13
2023-03-29T19:05:15.250Z,99735.59
2023-03-29T19:08:17.402Z,99732.47
2023-03-29T19:11:20.001Z,99737.41
2023-03-29T19:14:25.291Z,99737.06
2023-03-29T19:17:28.179Z,99733.06
2023-03-29T19:20:35.014Z,99734.37
2023-03-29T19:23:39.307Z,99733.22
2023-03-29T19:26:43.548Z,99736.38
2023-03-29T19:29:48.106Z,99743.75
2023-03-29T19:32:51.518Z,99750.00
2023-03-29T19:35:54.065Z,99750.50
2023-03-29T19:38:57.988Z,99754.63
2023-03-29T19:42:00.174Z,99745.56
2023-03-29T19:45:03.939Z,99738.69
2023-03-29T19:48:07.132Z,99744.97
2023-03-29T19:51:09.334Z,99744.81
2023-03-29T19:54:14.686Z,99741.84
2023-03-29T19:57:17.761Z,99743.75
2023-03-29T20:00:24.454Z,99744.16
2023-03-29T20:03:29.883Z,99752.06
2023-03-29T20:06:32.387Z,99740.22
2023-03-29T20:09:34.802Z,99741.25
2023-03-29T20:12:37.162Z,99743.75
2023-03-29T20:15:39.790Z,99746.91
2023-03-29T20:18:44.777Z,99746.88
2023-03-29T20:21:50.660Z,99733.22
2023-03-29T20:24:53.201Z,99733.91
2023-03-29T20:27:57.286Z,99735.22
2023-03-29T20:31:03.902Z,99738.88
2023-03-29T20:34:06.283Z,99734.53
2023-03-29T20:37:08.575Z,99731.03
2023-03-29T20:40:11.368Z,99733.56
2023-03-29T20:43:18.311Z,99723.62
2023-03-29T20:46:23.892Z,99718.59
2023-03-29T20:49:26.376Z,99717.28
2023-03-29T20:52:28.778Z,99718.50
2023-03-29T20:55:33.176Z,99720.09
2023-03-29T20:58:35.373Z,99721.34
2023-03-29T21:01:40.752Z,99721.34
2023-03-29T21:04:44.066Z,99720.03
2023-03-29T21:07:48.025Z,99714.97
2023-03-29T21:10:51.688Z,99714.91
2023-03-29T21:13:54.067Z,99712.75
2023-03-29T21:16:56.701Z,99708.81
2023-03-29T21:19:59.105Z,99707.25
2023-03-29T21:23:01.447Z,99706.38
2023-03-29T21:26:04.623Z,99707.06
2023-03-29T21:29:07.295Z,99704.94
2023-03-29T21:32:10.788Z,99700.69
2023-03-29T21:35:13.165Z,99703.19
2023-03-29T21:38:15.974Z,99702.53
2023-03-29T21:41:18.849Z,99708.09
2023-03-29T21:44:21.281Z,99707.16
2023-03-29T21:47:23.518Z,99705.50
2023-03-29T21:50:26.177Z,99710.94
2023-03-29T21:53:28.588Z,99704.37
2023-03-29T21:56:30.831Z,99692.16
2023-03-29T21:59:33.187Z,99689.09
2023-03-29T22:02:35.697Z,99697.81
2023-03-29T22:05:38.119Z,99696.63
2023-03-29T22:08:40.696Z,99695.00
2023-03-29T22:11:44.670Z,99695.03
2023-03-29T22:14:47.238Z,99700.97
2023-03-29T22:17:50.474Z,99699.16
2023-03-29T22:20:52.770Z,99699.97
2023-03-29T22:23:56.393Z,99699.47
2023-03-29T22:26:58.730Z,99699.97
2023-03-29T22:30:00.921Z,99695.38
2023-03-29T22:33:03.247Z,99697.97
2023-03-29T22:36:14.089Z,99693.03
2023-03-29T22:39:16.381Z,99698.81
2023-03-29T22:42:18.957Z,99700.44
2023-03-29T22:45:21.215Z,99696.84
2023-03-29T22:48:23.390Z,99708.03
2023-03-29T22:51:25.658Z,99711.81
2023-03-29T22:54:30.691Z,99711.34
2023-03-29T22:57:33.122Z,99709.19
2023-03-29T23:00:35.755Z,99710.13
2023-03-29T23:03:38.087Z,99707.81
2023-03-29T23:06:40.402Z,99707.66
2023-03-29T23:09:42.589Z,99697.94
2023-03-29T23:12:44.884Z,99697.78
2023-03-29T23:15:48.588Z,99698.47
2023-03-29T23:18:50.930Z,99704.84
2023-03-29T23:21:53.138Z,99704.69
2023-03-29T23:24:55.265Z,99707.94
2023-03-29T23:27:57.538Z,99710.56
2023-03-29T23:31:05.725Z,99696.91
2023-03-29T23:34:09.208Z,99697.22
2023-03-29T23:37:11.392Z,99701.34
2023-03-29T23:40:14.110Z,99702.00
2023-03-29T23:43:17.016Z,99703.81
2023-03-29T23:46:19.224Z,99705.28
2023-03-29T23:49:22.793Z,99703.59
2023-03-29T23:52:24.979Z,99705.38
2023-03-29T23:55:27.310Z,99705.53
2023-03-29T23:58:30.980Z,99698.56
